sensor_id;sensor_type;location;lat;lon;timestamp;P1;durP1;ratioP1;P2;durP2;ratioP2
47053;SDS011;32811;52.382;5.270;2022-08-30T00:02:37;5.50;;;1.20;;
47053;SDS011;32811;52.382;5.270;2022-08-30T00:05:04;2.70;;;1.13;;
47053;SDS011;32811;52.382;5.270;2022-08-30T00:07:31;2.83;;;1.50;;
47053;SDS011;32811;52.382;5.270;2022-08-30T00:09:57;3.55;;;1.30;;
47053;SDS011;32811;52.382;5.270;2022-08-30T00:12:24;3.38;;;1.50;;
47053;SDS011;32811;52.382;5.270;2022-08-30T00:14:51;3.65;;;1.75;;
47053;SDS011;32811;52.382;5.270;2022-08-30T00:17:18;3.40;;;1.23;;
47053;SDS011;32811;52.382;5.270;2022-08-30T00:19:44;3.50;;;1.75;;
47053;SDS011;32811;52.382;5.270;2022-08-30T00:22:11;3.42;;;1.60;;
47053;SDS011;32811;52.382;5.270;2022-08-30T00:24:38;3.40;;;1.63;;
47053;SDS011;32811;52.382;5.270;2022-08-30T00:27:04;4.40;;;1.50;;
47053;SDS011;32811;52.382;5.270;2022-08-30T00:29:31;4.05;;;1.45;;
47053;SDS011;32811;52.382;5.270;2022-08-30T00:31:57;3.35;;;1.90;;
47053;SDS011;32811;52.382;5.270;2022-08-30T00:34:24;5.32;;;1.63;;
47053;SDS011;32811;52.382;5.270;2022-08-30T00:36:51;2.30;;;1.45;;
47053;SDS011;32811;52.382;5.270;2022-08-30T00:39:18;4.63;;;1.98;;
47053;SDS011;32811;52.382;5.270;2022-08-30T00:41:44;4.15;;;1.52;;
47053;SDS011;32811;52.382;5.270;2022-08-30T00:44:11;3.72;;;1.50;;
47053;SDS011;32811;52.382;5.270;2022-08-30T00:46:38;3.60;;;1.80;;
47053;SDS011;32811;52.382;5.270;2022-08-30T00:49:06;4.28;;;2.22;;
47053;SDS011;32811;52.382;5.270;2022-08-30T00:51:35;2.30;;;1.63;;
47053;SDS011;32811;52.382;5.270;2022-08-30T00:54:03;2.58;;;1.80;;
47053;SDS011;32811;52.382;5.270;2022-08-30T00:56:30;3.25;;;1.60;;
47053;SDS011;32811;52.382;5.270;2022-08-30T00:59:00;2.35;;;1.65;;
47053;SDS011;32811;52.382;5.270;2022-08-30T01:01:28;2.15;;;1.73;;
47053;SDS011;32811;52.382;5.270;2022-08-30T01:03:59;5.40;;;2.30;;
47053;SDS011;32811;52.382;5.270;2022-08-30T01:06:27;4.28;;;1.58;;
47053;SDS011;32811;52.382;5.270;2022-08-30T01:08:57;3.85;;;1.67;;
47053;SDS011;32811;52.382;5.270;2022-08-30T01:11:25;3.45;;;1.90;;
47053;SDS011;32811;52.382;5.270;2022-08-30T01:13:53;5.35;;;1.85;;
47053;SDS011;32811;52.382;5.270;2022-08-30T01:16:21;3.75;;;1.63;;
47053;SDS011;32811;52.382;5.270;2022-08-30T01:18:52;3.67;;;1.90;;
47053;SDS011;32811;52.382;5.270;2022-08-30T01:24:04;4.82;;;2.65;;
47053;SDS011;32811;52.382;5.270;2022-08-30T01:26:33;5.57;;;2.08;;
47053;SDS011;32811;52.382;5.270;2022-08-30T01:29:03;5.75;;;2.05;;
47053;SDS011;32811;52.382;5.270;2022-08-30T01:31:32;3.88;;;1.83;;
47053;SDS011;32811;52.382;5.270;2022-08-30T01:34:02;4.40;;;2.35;;
47053;SDS011;32811;52.382;5.270;2022-08-30T01:36:36;3.22;;;2.00;;
47053;SDS011;32811;52.382;5.270;2022-08-30T01:39:10;3.78;;;1.85;;
47053;SDS011;32811;52.382;5.270;2022-08-30T01:41:39;3.45;;;1.92;;
47053;SDS011;32811;52.382;5.270;2022-08-30T01:44:07;4.47;;;1.90;;
47053;SDS011;32811;52.382;5.270;2022-08-30T01:46:44;4.30;;;2.10;;
47053;SDS011;32811;52.382;5.270;2022-08-30T01:49:14;3.10;;;2.33;;
47053;SDS011;32811;52.382;5.270;2022-08-30T01:51:44;3.70;;;2.25;;
47053;SDS011;32811;52.382;5.270;2022-08-30T01:54:11;3.45;;;1.70;;
47053;SDS011;32811;52.382;5.270;2022-08-30T01:56:37;5.50;;;2.33;;
47053;SDS011;32811;52.382;5.270;2022-08-30T01:59:04;2.08;;;1.80;;
47053;SDS011;32811;52.382;5.270;2022-08-30T02:01:32;5.78;;;2.00;;
47053;SDS011;32811;52.382;5.270;2022-08-30T02:04:02;5.32;;;2.40;;
47053;SDS011;32811;52.382;5.270;2022-08-30T02:06:29;3.80;;;2.50;;
47053;SDS011;32811;52.382;5.270;2022-08-30T02:08:56;3.30;;;2.05;;
47053;SDS011;32811;52.382;5.270;2022-08-30T02:11:23;5.45;;;2.33;;
47053;SDS011;32811;52.382;5.270;2022-08-30T02:13:50;7.00;;;2.97;;
47053;SDS011;32811;52.382;5.270;2022-08-30T02:16:18;2.72;;;1.90;;
47053;SDS011;32811;52.382;5.270;2022-08-30T02:18:50;4.70;;;2.15;;
47053;SDS011;32811;52.382;5.270;2022-08-30T02:21:18;4.90;;;2.83;;
47053;SDS011;32811;52.382;5.270;2022-08-30T02:23:45;3.65;;;2.05;;
47053;SDS011;32811;52.382;5.270;2022-08-30T02:26:12;4.45;;;2.90;;
47053;SDS011;32811;52.382;5.270;2022-08-30T02:28:39;3.95;;;1.73;;
47053;SDS011;32811;52.382;5.270;2022-08-30T02:31:15;5.78;;;2.35;;
47053;SDS011;32811;52.382;5.270;2022-08-30T02:33:46;3.58;;;2.00;;
47053;SDS011;32811;52.382;5.270;2022-08-30T02:36:14;3.88;;;2.05;;
47053;SDS011;32811;52.382;5.270;2022-08-30T02:38:40;4.50;;;2.83;;
47053;SDS011;32811;52.382;5.270;2022-08-30T02:41:07;7.18;;;2.33;;
47053;SDS011;32811;52.382;5.270;2022-08-30T02:43:34;6.18;;;2.70;;
47053;SDS011;32811;52.382;5.270;2022-08-30T02:46:00;4.55;;;2.10;;
47053;SDS011;32811;52.382;5.270;2022-08-30T02:48:27;3.67;;;2.13;;
47053;SDS011;32811;52.382;5.270;2022-08-30T02:50:53;3.53;;;1.98;;
47053;SDS011;32811;52.382;5.270;2022-08-30T02:53:20;5.22;;;3.78;;
47053;SDS011;32811;52.382;5.270;2022-08-30T02:55:47;3.92;;;3.08;;
47053;SDS011;32811;52.382;5.270;2022-08-30T02:58:15;8.07;;;2.20;;
47053;SDS011;32811;52.382;5.270;2022-08-30T03:00:41;6.30;;;2.45;;
47053;SDS011;32811;52.382;5.270;2022-08-30T03:03:09;4.18;;;2.42;;
47053;SDS011;32811;52.382;5.270;2022-08-30T03:05:35;2.90;;;2.20;;
47053;SDS011;32811;52.382;5.270;2022-08-30T03:08:05;3.50;;;2.15;;
47053;SDS011;32811;52.382;5.270;2022-08-30T03:10:32;2.97;;;2.17;;
47053;SDS011;32811;52.382;5.270;2022-08-30T03:12:59;5.05;;;2.85;;
47053;SDS011;32811;52.382;5.270;2022-08-30T03:15:26;4.85;;;2.92;;
47053;SDS011;32811;52.382;5.270;2022-08-30T03:17:53;4.80;;;2.80;;
47053;SDS011;32811;52.382;5.270;2022-08-30T03:20:21;9.27;;;3.65;;
47053;SDS011;32811;52.382;5.270;2022-08-30T03:22:49;4.75;;;2.78;;
47053;SDS011;32811;52.382;5.270;2022-08-30T03:25:16;7.70;;;2.88;;
47053;SDS011;32811;52.382;5.270;2022-08-30T03:27:43;4.60;;;2.47;;
47053;SDS011;32811;52.382;5.270;2022-08-30T03:30:09;4.65;;;2.33;;
47053;SDS011;32811;52.382;5.270;2022-08-30T03:32:37;4.53;;;3.30;;
47053;SDS011;32811;52.382;5.270;2022-08-30T03:35:04;4.78;;;2.65;;
47053;SDS011;32811;52.382;5.270;2022-08-30T03:37:33;7.82;;;2.85;;
47053;SDS011;32811;52.382;5.270;2022-08-30T03:40:00;7.75;;;2.88;;
47053;SDS011;32811;52.382;5.270;2022-08-30T03:42:30;6.68;;;2.97;;
47053;SDS011;32811;52.382;5.270;2022-08-30T03:44:56;4.53;;;2.92;;
47053;SDS011;32811;52.382;5.270;2022-08-30T03:47:23;5.35;;;3.50;;
47053;SDS011;32811;52.382;5.270;2022-08-30T03:49:49;5.78;;;2.80;;
47053;SDS011;32811;52.382;5.270;2022-08-30T03:52:16;5.90;;;2.50;;
47053;SDS011;32811;52.382;5.270;2022-08-30T03:54:43;3.72;;;2.80;;
47053;SDS011;32811;52.382;5.270;2022-08-30T03:57:10;4.82;;;2.95;;
47053;SDS011;32811;52.382;5.270;2022-08-30T03:59:49;4.53;;;2.97;;
47053;SDS011;32811;52.382;5.270;2022-08-30T04:02:16;4.50;;;2.60;;
47053;SDS011;32811;52.382;5.270;2022-08-30T04:04:43;4.85;;;2.88;;
47053;SDS011;32811;52.382;5.270;2022-08-30T04:07:10;6.00;;;2.97;;
47053;SDS011;32811;52.382;5.270;2022-08-30T04:09:36;3.60;;;2.85;;
47053;SDS011;32811;52.382;5.270;2022-08-30T04:12:03;5.80;;;2.88;;
47053;SDS011;32811;52.382;5.270;2022-08-30T04:14:30;4.20;;;3.22;;
47053;SDS011;32811;52.382;5.270;2022-08-30T04:16:56;5.90;;;3.35;;
47053;SDS011;32811;52.382;5.270;2022-08-30T04:19:23;3.65;;;2.88;;
47053;SDS011;32811;52.382;5.270;2022-08-30T04:21:50;4.72;;;2.97;;
47053;SDS011;32811;52.382;5.270;2022-08-30T04:24:16;4.15;;;3.03;;
47053;SDS011;32811;52.382;5.270;2022-08-30T04:26:43;5.50;;;3.28;;
47053;SDS011;32811;52.382;5.270;2022-08-30T04:29:09;4.95;;;3.08;;
47053;SDS011;32811;52.382;5.270;2022-08-30T04:31:37;6.63;;;3.33;;
47053;SDS011;32811;52.382;5.270;2022-08-30T04:34:04;3.63;;;2.92;;
47053;SDS011;32811;52.382;5.270;2022-08-30T04:36:30;3.75;;;2.97;;
47053;SDS011;32811;52.382;5.270;2022-08-30T04:38:57;3.25;;;2.92;;
47053;SDS011;32811;52.382;5.270;2022-08-30T04:41:23;7.90;;;3.20;;
47053;SDS011;32811;52.382;5.270;2022-08-30T04:43:50;8.75;;;3.63;;
47053;SDS011;32811;52.382;5.270;2022-08-30T04:46:17;7.38;;;3.72;;
47053;SDS011;32811;52.382;5.270;2022-08-30T04:48:45;5.30;;;2.58;;
47053;SDS011;32811;52.382;5.270;2022-08-30T04:51:13;4.53;;;3.22;;
47053;SDS011;32811;52.382;5.270;2022-08-30T04:53:43;4.30;;;3.40;;
47053;SDS011;32811;52.382;5.270;2022-08-30T04:56:11;5.75;;;3.42;;
47053;SDS011;32811;52.382;5.270;2022-08-30T04:58:43;4.15;;;2.65;;
47053;SDS011;32811;52.382;5.270;2022-08-30T05:01:16;4.22;;;3.17;;
47053;SDS011;32811;52.382;5.270;2022-08-30T05:03:49;4.15;;;3.17;;
47053;SDS011;32811;52.382;5.270;2022-08-30T05:06:17;5.20;;;3.17;;
47053;SDS011;32811;52.382;5.270;2022-08-30T05:08:44;5.95;;;2.72;;
47053;SDS011;32811;52.382;5.270;2022-08-30T05:11:12;3.20;;;2.60;;
47053;SDS011;32811;52.382;5.270;2022-08-30T05:13:39;3.67;;;2.60;;
47053;SDS011;32811;52.382;5.270;2022-08-30T05:16:06;4.32;;;3.13;;
47053;SDS011;32811;52.382;5.270;2022-08-30T05:18:34;6.38;;;3.17;;
47053;SDS011;32811;52.382;5.270;2022-08-30T05:21:02;4.28;;;3.17;;
47053;SDS011;32811;52.382;5.270;2022-08-30T05:23:29;3.85;;;2.80;;
47053;SDS011;32811;52.382;5.270;2022-08-30T05:25:56;5.05;;;3.42;;
47053;SDS011;32811;52.382;5.270;2022-08-30T05:28:22;4.03;;;3.53;;
47053;SDS011;32811;52.382;5.270;2022-08-30T05:30:51;2.78;;;2.55;;
47053;SDS011;32811;52.382;5.270;2022-08-30T05:33:18;3.72;;;2.85;;
47053;SDS011;32811;52.382;5.270;2022-08-30T05:35:44;5.20;;;2.88;;
47053;SDS011;32811;52.382;5.270;2022-08-30T05:38:11;4.57;;;2.97;;
47053;SDS011;32811;52.382;5.270;2022-08-30T05:40:41;8.18;;;3.67;;
47053;SDS011;32811;52.382;5.270;2022-08-30T05:43:09;2.95;;;2.63;;
47053;SDS011;32811;52.382;5.270;2022-08-30T05:45:36;11.63;;;3.42;;
47053;SDS011;32811;52.382;5.270;2022-08-30T05:48:03;8.23;;;2.97;;
47053;SDS011;32811;52.382;5.270;2022-08-30T05:50:30;4.32;;;3.20;;
47053;SDS011;32811;52.382;5.270;2022-08-30T05:52:57;7.68;;;3.22;;
47053;SDS011;32811;52.382;5.270;2022-08-30T05:55:23;5.18;;;2.45;;
47053;SDS011;32811;52.382;5.270;2022-08-30T05:57:50;7.82;;;2.92;;
47053;SDS011;32811;52.382;5.270;2022-08-30T06:00:17;5.22;;;2.90;;
47053;SDS011;32811;52.382;5.270;2022-08-30T06:02:44;4.47;;;2.63;;
47053;SDS011;32811;52.382;5.270;2022-08-30T06:05:11;6.50;;;2.42;;
47053;SDS011;32811;52.382;5.270;2022-08-30T06:07:39;2.58;;;2.35;;
47053;SDS011;32811;52.382;5.270;2022-08-30T06:10:06;2.83;;;1.90;;
47053;SDS011;32811;52.382;5.270;2022-08-30T06:12:33;3.28;;;2.35;;
47053;SDS011;32811;52.382;5.270;2022-08-30T06:15:00;3.08;;;1.67;;
47053;SDS011;32811;52.382;5.270;2022-08-30T06:17:26;2.30;;;1.75;;
47053;SDS011;32811;52.382;5.270;2022-08-30T06:19:53;3.53;;;1.98;;
47053;SDS011;32811;52.382;5.270;2022-08-30T06:22:19;3.05;;;1.95;;
47053;SDS011;32811;52.382;5.270;2022-08-30T06:24:46;4.38;;;2.30;;
47053;SDS011;32811;52.382;5.270;2022-08-30T06:27:23;7.18;;;2.10;;
47053;SDS011;32811;52.382;5.270;2022-08-30T06:29:50;2.40;;;1.80;;
47053;SDS011;32811;52.382;5.270;2022-08-30T06:32:17;4.57;;;1.67;;
47053;SDS011;32811;52.382;5.270;2022-08-30T06:34:44;2.88;;;1.60;;
47053;SDS011;32811;52.382;5.270;2022-08-30T06:37:10;2.33;;;1.70;;
47053;SDS011;32811;52.382;5.270;2022-08-30T06:39:55;5.35;;;1.95;;
47053;SDS011;32811;52.382;5.270;2022-08-30T06:42:22;4.00;;;1.60;;
47053;SDS011;32811;52.382;5.270;2022-08-30T06:44:49;2.35;;;1.48;;
47053;SDS011;32811;52.382;5.270;2022-08-30T06:47:16;2.50;;;1.42;;
47053;SDS011;32811;52.382;5.270;2022-08-30T06:49:43;3.83;;;1.45;;
47053;SDS011;32811;52.382;5.270;2022-08-30T06:52:10;2.45;;;1.90;;
47053;SDS011;32811;52.382;5.270;2022-08-30T06:54:37;2.60;;;1.48;;
47053;SDS011;32811;52.382;5.270;2022-08-30T06:57:03;5.00;;;1.40;;
47053;SDS011;32811;52.382;5.270;2022-08-30T06:59:30;1.52;;;1.23;;
47053;SDS011;32811;52.382;5.270;2022-08-30T07:01:57;1.63;;;1.42;;
47053;SDS011;32811;52.382;5.270;2022-08-30T07:04:24;2.45;;;1.30;;
47053;SDS011;32811;52.382;5.270;2022-08-30T07:06:51;6.70;;;1.42;;
47053;SDS011;32811;52.382;5.270;2022-08-30T07:09:18;5.00;;;2.13;;
47053;SDS011;32811;52.382;5.270;2022-08-30T07:11:48;3.20;;;1.10;;
47053;SDS011;32811;52.382;5.270;2022-08-30T07:14:15;4.22;;;1.10;;
47053;SDS011;32811;52.382;5.270;2022-08-30T07:16:42;3.53;;;0.90;;
47053;SDS011;32811;52.382;5.270;2022-08-30T07:19:09;1.40;;;1.00;;
47053;SDS011;32811;52.382;5.270;2022-08-30T07:21:46;3.88;;;1.30;;
47053;SDS011;32811;52.382;5.270;2022-08-30T07:24:14;2.85;;;1.23;;
47053;SDS011;32811;52.382;5.270;2022-08-30T07:26:43;3.28;;;1.00;;
47053;SDS011;32811;52.382;5.270;2022-08-30T07:29:14;3.08;;;0.90;;
47053;SDS011;32811;52.382;5.270;2022-08-30T07:31:42;2.90;;;1.10;;
47053;SDS011;32811;52.382;5.270;2022-08-30T07:34:09;2.42;;;1.00;;
47053;SDS011;32811;52.382;5.270;2022-08-30T07:36:36;2.08;;;0.90;;
47053;SDS011;32811;52.382;5.270;2022-08-30T07:39:04;3.83;;;1.00;;
47053;SDS011;32811;52.382;5.270;2022-08-30T07:41:32;1.17;;;0.90;;
47053;SDS011;32811;52.382;5.270;2022-08-30T07:44:01;1.75;;;0.82;;
47053;SDS011;32811;52.382;5.270;2022-08-30T07:46:28;3.72;;;0.90;;
47053;SDS011;32811;52.382;5.270;2022-08-30T07:48:55;0.88;;;0.50;;
47053;SDS011;32811;52.382;5.270;2022-08-30T07:51:24;4.20;;;1.45;;
47053;SDS011;32811;52.382;5.270;2022-08-30T07:53:52;2.05;;;0.50;;
47053;SDS011;32811;52.382;5.270;2022-08-30T07:56:20;1.98;;;0.63;;
47053;SDS011;32811;52.382;5.270;2022-08-30T07:58:47;0.95;;;0.47;;
47053;SDS011;32811;52.382;5.270;2022-08-30T08:01:14;4.68;;;0.90;;
47053;SDS011;32811;52.382;5.270;2022-08-30T08:03:42;3.35;;;0.60;;
47053;SDS011;32811;52.382;5.270;2022-08-30T08:06:10;1.67;;;0.52;;
47053;SDS011;32811;52.382;5.270;2022-08-30T08:08:39;1.13;;;0.70;;
47053;SDS011;32811;52.382;5.270;2022-08-30T08:11:08;2.40;;;0.70;;
47053;SDS011;32811;52.382;5.270;2022-08-30T08:13:43;1.83;;;0.55;;
47053;SDS011;32811;52.382;5.270;2022-08-30T08:16:20;4.07;;;0.90;;
47053;SDS011;32811;52.382;5.270;2022-08-30T08:18:50;2.35;;;0.60;;
47053;SDS011;32811;52.382;5.270;2022-08-30T08:21:17;1.50;;;0.77;;
47053;SDS011;32811;52.382;5.270;2022-08-30T08:23:44;7.00;;;1.00;;
47053;SDS011;32811;52.382;5.270;2022-08-30T08:26:12;1.55;;;0.68;;
47053;SDS011;32811;52.382;5.270;2022-08-30T08:28:39;1.23;;;0.57;;
47053;SDS011;32811;52.382;5.270;2022-08-30T08:31:14;4.30;;;1.15;;
47053;SDS011;32811;52.382;5.270;2022-08-30T08:33:41;2.42;;;0.82;;
47053;SDS011;32811;52.382;5.270;2022-08-30T08:36:08;1.58;;;0.50;;
47053;SDS011;32811;52.382;5.270;2022-08-30T08:38:35;3.97;;;0.88;;
47053;SDS011;32811;52.382;5.270;2022-08-30T08:43:32;1.27;;;0.75;;
47053;SDS011;32811;52.382;5.270;2022-08-30T08:48:46;4.07;;;0.88;;
47053;SDS011;32811;52.382;5.270;2022-08-30T08:51:31;2.92;;;0.60;;
47053;SDS011;32811;52.382;5.270;2022-08-30T08:57:01;4.15;;;0.60;;
47053;SDS011;32811;52.382;5.270;2022-08-30T08:59:28;3.90;;;0.68;;
47053;SDS011;32811;52.382;5.270;2022-08-30T09:01:58;5.65;;;0.80;;
47053;SDS011;32811;52.382;5.270;2022-08-30T09:04:32;2.30;;;0.80;;
47053;SDS011;32811;52.382;5.270;2022-08-30T09:07:25;1.77;;;0.75;;
47053;SDS011;32811;52.382;5.270;2022-08-30T09:09:51;3.75;;;0.70;;
47053;SDS011;32811;52.382;5.270;2022-08-30T09:12:18;0.93;;;0.57;;
47053;SDS011;32811;52.382;5.270;2022-08-30T09:14:47;5.55;;;0.70;;
47053;SDS011;32811;52.382;5.270;2022-08-30T09:22:21;3.35;;;0.50;;
47053;SDS011;32811;52.382;5.270;2022-08-30T09:24:54;4.55;;;0.88;;
47053;SDS011;32811;52.382;5.270;2022-08-30T09:27:27;0.85;;;0.80;;
47053;SDS011;32811;52.382;5.270;2022-08-30T09:29:59;4.00;;;1.98;;
47053;SDS011;32811;52.382;5.270;2022-08-30T09:32:34;2.65;;;1.27;;
47053;SDS011;32811;52.382;5.270;2022-08-30T09:35:09;1.35;;;0.75;;
47053;SDS011;32811;52.382;5.270;2022-08-30T09:37:45;1.23;;;0.65;;
47053;SDS011;32811;52.382;5.270;2022-08-30T09:40:14;4.45;;;0.90;;
47053;SDS011;32811;52.382;5.270;2022-08-30T09:43:48;3.28;;;0.60;;
47053;SDS011;32811;52.382;5.270;2022-08-30T09:48:42;1.92;;;0.77;;
47053;SDS011;32811;52.382;5.270;2022-08-30T09:56:51;4.13;;;1.05;;
47053;SDS011;32811;52.382;5.270;2022-08-30T10:08:23;3.00;;;0.85;;
47053;SDS011;32811;52.382;5.270;2022-08-30T10:11:02;2.22;;;0.50;;
47053;SDS011;32811;52.382;5.270;2022-08-30T10:13:37;3.17;;;0.75;;
47053;SDS011;32811;52.382;5.270;2022-08-30T10:19:18;5.97;;;1.00;;
47053;SDS011;32811;52.382;5.270;2022-08-30T10:25:15;1.45;;;0.68;;
47053;SDS011;32811;52.382;5.270;2022-08-30T10:27:49;2.45;;;0.80;;
47053;SDS011;32811;52.382;5.270;2022-08-30T10:30:21;4.00;;;1.08;;
47053;SDS011;32811;52.382;5.270;2022-08-30T10:35:28;2.80;;;0.60;;
47053;SDS011;32811;52.382;5.270;2022-08-30T10:40:51;0.98;;;0.45;;
47053;SDS011;32811;52.382;5.270;2022-08-30T10:43:43;2.85;;;0.70;;
47053;SDS011;32811;52.382;5.270;2022-08-30T10:46:24;3.85;;;0.60;;
47053;SDS011;32811;52.382;5.270;2022-08-30T10:48:52;3.15;;;0.73;;
47053;SDS011;32811;52.382;5.270;2022-08-30T10:57:04;2.60;;;0.57;;
47053;SDS011;32811;52.382;5.270;2022-08-30T10:59:30;2.20;;;0.70;;
47053;SDS011;32811;52.382;5.270;2022-08-30T11:07:32;2.92;;;0.65;;
47053;SDS011;32811;52.382;5.270;2022-08-30T11:15:16;1.38;;;0.40;;
47053;SDS011;32811;52.382;5.270;2022-08-30T11:18:00;1.25;;;0.80;;
47053;SDS011;32811;52.382;5.270;2022-08-30T11:20:31;1.65;;;0.52;;
47053;SDS011;32811;52.382;5.270;2022-08-30T11:23:19;0.70;;;0.50;;
47053;SDS011;32811;52.382;5.270;2022-08-30T11:33:46;1.27;;;0.57;;
47053;SDS011;32811;52.382;5.270;2022-08-30T11:37:02;0.85;;;0.60;;
47053;SDS011;32811;52.382;5.270;2022-08-30T11:42:12;2.50;;;0.70;;
47053;SDS011;32811;52.382;5.270;2022-08-30T11:53:19;5.82;;;0.68;;
47053;SDS011;32811;52.382;5.270;2022-08-30T11:59:32;2.30;;;0.70;;
47053;SDS011;32811;52.382;5.270;2022-08-30T12:03:02;1.50;;;0.73;;
47053;SDS011;32811;52.382;5.270;2022-08-30T12:05:59;1.88;;;0.68;;
47053;SDS011;32811;52.382;5.270;2022-08-30T12:10:47;2.15;;;0.77;;
47053;SDS011;32811;52.382;5.270;2022-08-30T12:18:44;1.33;;;0.85;;
47053;SDS011;32811;52.382;5.270;2022-08-30T12:21:22;3.45;;;0.60;;
47053;SDS011;32811;52.382;5.270;2022-08-30T12:23:56;6.45;;;0.85;;
47053;SDS011;32811;52.382;5.270;2022-08-30T12:26:51;7.30;;;1.23;;
47053;SDS011;32811;52.382;5.270;2022-08-30T12:31:55;1.92;;;0.70;;
47053;SDS011;32811;52.382;5.270;2022-08-30T12:37:08;1.33;;;0.65;;
47053;SDS011;32811;52.382;5.270;2022-08-30T12:39:53;1.75;;;0.50;;
47053;SDS011;32811;52.382;5.270;2022-08-30T12:42:29;3.85;;;0.80;;
47053;SDS011;32811;52.382;5.270;2022-08-30T12:44:59;1.58;;;0.52;;
47053;SDS011;32811;52.382;5.270;2022-08-30T12:47:39;5.72;;;0.80;;
47053;SDS011;32811;52.382;5.270;2022-08-30T12:50:11;2.50;;;0.73;;
47053;SDS011;32811;52.382;5.270;2022-08-30T12:52:43;1.35;;;0.70;;
47053;SDS011;32811;52.382;5.270;2022-08-30T13:05:56;1.40;;;0.50;;
47053;SDS011;32811;52.382;5.270;2022-08-30T13:08:33;4.85;;;0.60;;
47053;SDS011;32811;52.382;5.270;2022-08-30T13:11:14;1.00;;;0.50;;
47053;SDS011;32811;52.382;5.270;2022-08-30T13:16:39;1.35;;;0.75;;
47053;SDS011;32811;52.382;5.270;2022-08-30T13:19:21;1.38;;;0.60;;
47053;SDS011;32811;52.382;5.270;2022-08-30T13:21:57;4.13;;;0.50;;
47053;SDS011;32811;52.382;5.270;2022-08-30T13:24:24;2.17;;;0.68;;
47053;SDS011;32811;52.382;5.270;2022-08-30T13:26:55;2.58;;;0.50;;
47053;SDS011;32811;52.382;5.270;2022-08-30T13:29:27;1.83;;;0.57;;
47053;SDS011;32811;52.382;5.270;2022-08-30T13:31:54;1.05;;;0.40;;
47053;SDS011;32811;52.382;5.270;2022-08-30T13:34:21;4.13;;;0.68;;
47053;SDS011;32811;52.382;5.270;2022-08-30T13:36:49;2.92;;;0.60;;
47053;SDS011;32811;52.382;5.270;2022-08-30T13:39:19;4.03;;;0.68;;
47053;SDS011;32811;52.382;5.270;2022-08-30T13:41:47;3.25;;;0.98;;
47053;SDS011;32811;52.382;5.270;2022-08-30T13:44:14;1.00;;;0.47;;
47053;SDS011;32811;52.382;5.270;2022-08-30T13:46:41;5.53;;;0.93;;
47053;SDS011;32811;52.382;5.270;2022-08-30T13:49:19;2.72;;;0.60;;
47053;SDS011;32811;52.382;5.270;2022-08-30T13:52:09;1.23;;;0.65;;
47053;SDS011;32811;52.382;5.270;2022-08-30T13:54:48;3.40;;;0.88;;
47053;SDS011;32811;52.382;5.270;2022-08-30T13:57:17;0.52;;;0.50;;
47053;SDS011;32811;52.382;5.270;2022-08-30T14:00:07;3.05;;;0.70;;
47053;SDS011;32811;52.382;5.270;2022-08-30T14:02:37;3.50;;;1.23;;
47053;SDS011;32811;52.382;5.270;2022-08-30T14:05:14;1.45;;;0.52;;
47053;SDS011;32811;52.382;5.270;2022-08-30T14:08:01;1.20;;;0.80;;
47053;SDS011;32811;52.382;5.270;2022-08-30T14:10:29;0.60;;;0.50;;
47053;SDS011;32811;52.382;5.270;2022-08-30T14:12:58;0.85;;;0.50;;
47053;SDS011;32811;52.382;5.270;2022-08-30T14:15:34;2.25;;;0.80;;
47053;SDS011;32811;52.382;5.270;2022-08-30T14:18:04;1.83;;;0.60;;
47053;SDS011;32811;52.382;5.270;2022-08-30T14:20:31;2.25;;;0.70;;
47053;SDS011;32811;52.382;5.270;2022-08-30T14:23:04;1.52;;;0.45;;
47053;SDS011;32811;52.382;5.270;2022-08-30T14:25:35;4.03;;;0.63;;
47053;SDS011;32811;52.382;5.270;2022-08-30T14:28:05;1.15;;;0.60;;
47053;SDS011;32811;52.382;5.270;2022-08-30T14:30:32;2.22;;;0.60;;
47053;SDS011;32811;52.382;5.270;2022-08-30T14:32:59;3.10;;;0.60;;
47053;SDS011;32811;52.382;5.270;2022-08-30T14:35:25;0.85;;;0.38;;
47053;SDS011;32811;52.382;5.270;2022-08-30T14:37:52;2.13;;;0.65;;
47053;SDS011;32811;52.382;5.270;2022-08-30T14:40:19;0.98;;;0.60;;
47053;SDS011;32811;52.382;5.270;2022-08-30T14:42:45;1.67;;;0.70;;
47053;SDS011;32811;52.382;5.270;2022-08-30T14:45:12;1.20;;;0.60;;
47053;SDS011;32811;52.382;5.270;2022-08-30T14:47:39;2.15;;;0.70;;
47053;SDS011;32811;52.382;5.270;2022-08-30T14:50:05;1.25;;;0.63;;
47053;SDS011;32811;52.382;5.270;2022-08-30T14:52:32;3.22;;;0.50;;
47053;SDS011;32811;52.382;5.270;2022-08-30T14:54:59;1.52;;;0.82;;
47053;SDS011;32811;52.382;5.270;2022-08-30T14:57:34;3.47;;;0.70;;
47053;SDS011;32811;52.382;5.270;2022-08-30T15:00:04;3.28;;;0.80;;
47053;SDS011;32811;52.382;5.270;2022-08-30T15:02:33;1.10;;;0.60;;
47053;SDS011;32811;52.382;5.270;2022-08-30T15:05:00;1.33;;;0.63;;
47053;SDS011;32811;52.382;5.270;2022-08-30T15:07:27;0.82;;;0.55;;
47053;SDS011;32811;52.382;5.270;2022-08-30T15:09:53;1.05;;;0.50;;
47053;SDS011;32811;52.382;5.270;2022-08-30T15:12:20;4.68;;;1.90;;
47053;SDS011;32811;52.382;5.270;2022-08-30T15:14:46;0.93;;;0.60;;
47053;SDS011;32811;52.382;5.270;2022-08-30T15:17:13;1.45;;;0.50;;
47053;SDS011;32811;52.382;5.270;2022-08-30T15:19:43;4.07;;;0.77;;
47053;SDS011;32811;52.382;5.270;2022-08-30T15:22:09;4.13;;;0.80;;
47053;SDS011;32811;52.382;5.270;2022-08-30T15:24:36;2.92;;;0.63;;
47053;SDS011;32811;52.382;5.270;2022-08-30T15:27:03;2.00;;;0.93;;
47053;SDS011;32811;52.382;5.270;2022-08-30T15:29:31;1.75;;;0.47;;
47053;SDS011;32811;52.382;5.270;2022-08-30T15:31:58;2.65;;;0.50;;
47053;SDS011;32811;52.382;5.270;2022-08-30T15:34:25;2.13;;;0.70;;
47053;SDS011;32811;52.382;5.270;2022-08-30T15:36:54;3.45;;;0.80;;
47053;SDS011;32811;52.382;5.270;2022-08-30T15:39:21;4.70;;;0.60;;
47053;SDS011;32811;52.382;5.270;2022-08-30T15:41:50;2.05;;;0.55;;
47053;SDS011;32811;52.382;5.270;2022-08-30T15:44:22;2.17;;;0.70;;
47053;SDS011;32811;52.382;5.270;2022-08-30T15:46:49;2.15;;;0.55;;
47053;SDS011;32811;52.382;5.270;2022-08-30T15:49:17;2.03;;;0.60;;
47053;SDS011;32811;52.382;5.270;2022-08-30T15:51:47;3.45;;;0.55;;
47053;SDS011;32811;52.382;5.270;2022-08-30T15:54:19;1.85;;;0.50;;
47053;SDS011;32811;52.382;5.270;2022-08-30T15:56:48;1.52;;;0.40;;
47053;SDS011;32811;52.382;5.270;2022-08-30T15:59:14;2.05;;;0.60;;
47053;SDS011;32811;52.382;5.270;2022-08-30T16:01:43;3.70;;;1.02;;
47053;SDS011;32811;52.382;5.270;2022-08-30T16:04:13;1.27;;;0.43;;
47053;SDS011;32811;52.382;5.270;2022-08-30T16:06:43;1.92;;;0.75;;
47053;SDS011;32811;52.382;5.270;2022-08-30T16:09:10;1.60;;;0.50;;
47053;SDS011;32811;52.382;5.270;2022-08-30T16:11:37;6.55;;;0.65;;
47053;SDS011;32811;52.382;5.270;2022-08-30T16:14:04;4.20;;;0.82;;
47053;SDS011;32811;52.382;5.270;2022-08-30T16:16:31;1.90;;;0.80;;
47053;SDS011;32811;52.382;5.270;2022-08-30T16:19:00;1.38;;;0.77;;
47053;SDS011;32811;52.382;5.270;2022-08-30T16:21:30;3.95;;;0.70;;
47053;SDS011;32811;52.382;5.270;2022-08-30T16:23:59;2.03;;;0.60;;
47053;SDS011;32811;52.382;5.270;2022-08-30T16:26:28;1.88;;;0.50;;
47053;SDS011;32811;52.382;5.270;2022-08-30T16:28:56;1.17;;;0.82;;
47053;SDS011;32811;52.382;5.270;2022-08-30T16:31:24;2.25;;;0.88;;
47053;SDS011;32811;52.382;5.270;2022-08-30T16:33:53;0.63;;;0.50;;
47053;SDS011;32811;52.382;5.270;2022-08-30T16:36:20;2.47;;;0.50;;
47053;SDS011;32811;52.382;5.270;2022-08-30T16:38:48;1.40;;;0.70;;
47053;SDS011;32811;52.382;5.270;2022-08-30T16:41:22;1.58;;;0.90;;
47053;SDS011;32811;52.382;5.270;2022-08-30T16:43:49;1.70;;;0.55;;
47053;SDS011;32811;52.382;5.270;2022-08-30T16:46:19;1.50;;;0.57;;
47053;SDS011;32811;52.382;5.270;2022-08-30T16:48:53;2.25;;;0.43;;
47053;SDS011;32811;52.382;5.270;2022-08-30T16:51:25;0.40;;;0.32;;
47053;SDS011;32811;52.382;5.270;2022-08-30T16:53:57;1.52;;;0.60;;
47053;SDS011;32811;52.382;5.270;2022-08-30T16:56:26;1.35;;;0.60;;